createdAt,value
2022-10-31T00:00:38.142Z,28.10
2022-10-31T00:03:10.631Z,20.85
2022-10-31T00:05:40.525Z,17.92
2022-10-31T00:08:10.345Z,25.67
2022-10-31T00:10:41.881Z,16.85
2022-10-31T00:13:12.498Z,16.92
2022-10-31T00:15:43.242Z,15.07
2022-10-31T00:18:15.684Z,18.70
2022-10-31T00:20:45.559Z,13.38
2022-10-31T00:23:15.725Z,35.25
2022-10-31T00:25:45.563Z,31.17
2022-10-31T00:28:15.760Z,23.45
2022-10-31T00:30:45.678Z,10.07
2022-10-31T00:33:18.204Z,13.68
2022-10-31T00:35:53.768Z,13.45
2022-10-31T00:38:23.764Z,14.57
2022-10-31T00:40:53.665Z,10.45
2022-10-31T00:43:23.593Z,13.70
2022-10-31T00:45:53.598Z,22.55
2022-10-31T00:48:26.174Z,25.98
2022-10-31T00:50:56.675Z,25.23
2022-10-31T00:53:26.700Z,16.08
2022-10-31T00:55:56.616Z,19.52
2022-10-31T00:58:26.658Z,19.10
2022-10-31T01:00:58.644Z,19.17
2022-10-31T01:03:32.961Z,16.77
2022-10-31T01:06:04.080Z,16.17
2022-10-31T01:08:36.086Z,13.80
2022-10-31T01:11:09.700Z,18.65
2022-10-31T01:13:39.645Z,13.32
2022-10-31T01:16:12.253Z,10.40
2022-10-31T01:18:44.883Z,13.18
2022-10-31T01:21:16.361Z,13.60
2022-10-31T01:23:46.690Z,25.25
2022-10-31T01:26:19.252Z,14.98
2022-10-31T01:28:50.676Z,12.00
2022-10-31T01:31:21.908Z,10.57
2022-10-31T01:33:54.802Z,16.58
2022-10-31T01:36:26.847Z,13.98
2022-10-31T01:38:59.184Z,11.05
2022-10-31T01:41:31.210Z,12.77
2022-10-31T01:44:03.315Z,21.08
2022-10-31T01:46:36.229Z,29.75
2022-10-31T01:49:13.684Z,23.48
2022-10-31T01:51:49.088Z,17.63
2022-10-31T01:54:20.688Z,19.20
2022-10-31T01:56:54.091Z,21.77
2022-10-31T01:59:25.207Z,13.38
2022-10-31T02:01:55.820Z,12.18
2022-10-31T02:04:29.144Z,17.52
2022-10-31T02:07:02.305Z,10.63
2022-10-31T02:09:33.631Z,8.30
2022-10-31T02:12:06.081Z,13.43
2022-10-31T02:14:36.288Z,12.02
2022-10-31T02:17:07.078Z,8.50
2022-10-31T02:19:54.555Z,14.90
2022-10-31T02:22:30.652Z,9.48
2022-10-31T02:25:13.148Z,8.25
2022-10-31T02:28:10.083Z,15.18
2022-10-31T02:30:46.313Z,11.07
2022-10-31T02:33:26.081Z,7.72
2022-10-31T02:36:02.966Z,9.82
2022-10-31T02:38:47.291Z,14.43
2022-10-31T02:41:28.629Z,9.88
2022-10-31T02:44:10.592Z,10.50
2022-10-31T02:46:46.369Z,16.95
2022-10-31T02:49:26.132Z,18.63
2022-10-31T02:51:56.030Z,9.67
2022-10-31T02:54:28.044Z,16.85
2022-10-31T02:57:02.329Z,16.92
2022-10-31T02:59:33.976Z,11.68
2022-10-31T03:02:34.704Z,12.88
2022-10-31T03:05:27.965Z,12.65
2022-10-31T03:08:03.445Z,11.93
2022-10-31T03:10:39.999Z,10.90
2022-10-31T03:13:13.740Z,9.43
2022-10-31T03:15:47.464Z,6.85
2022-10-31T03:18:21.360Z,8.80
2022-10-31T03:20:58.386Z,7.53
2022-10-31T03:23:29.417Z,6.60
2022-10-31T03:25:59.382Z,6.18
2022-10-31T03:28:33.391Z,4.05
2022-10-31T03:31:06.512Z,10.05
2022-10-31T03:33:41.273Z,8.52
2022-10-31T03:36:15.317Z,11.77
2022-10-31T03:38:48.520Z,10.02
2022-10-31T03:41:23.332Z,12.82
2022-10-31T03:43:59.467Z,6.82
2022-10-31T03:46:29.776Z,10.02
2022-10-31T03:49:01.917Z,12.02
2022-10-31T03:51:38.860Z,9.75
2022-10-31T03:54:13.316Z,8.77
2022-10-31T03:56:47.477Z,17.00
2022-10-31T03:59:20.541Z,11.18
2022-10-31T04:01:54.474Z,7.43
2022-10-31T04:04:24.659Z,8.95
2022-10-31T04:06:58.266Z,9.85
2022-10-31T04:09:29.906Z,12.60
2022-10-31T04:12:01.080Z,10.70
2022-10-31T04:14:51.921Z,7.03
2022-10-31T04:17:23.112Z,9.70
2022-10-31T04:19:53.404Z,7.22
2022-10-31T04:22:25.885Z,13.05
2022-10-31T04:24:56.013Z,12.00
2022-10-31T04:27:25.930Z,14.70
2022-10-31T04:29:55.929Z,14.35
2022-10-31T04:32:25.801Z,12.98
2022-10-31T04:34:56.593Z,14.55
2022-10-31T04:37:29.060Z,9.98
2022-10-31T04:39:59.176Z,18.38
2022-10-31T04:42:47.612Z,6.75
2022-10-31T04:45:21.057Z,12.18
2022-10-31T04:47:54.340Z,12.02
2022-10-31T04:50:24.212Z,15.00
2022-10-31T04:52:57.037Z,9.52
2022-10-31T04:55:30.935Z,10.68
2022-10-31T04:58:21.295Z,12.43
2022-10-31T05:00:55.695Z,10.65
2022-10-31T05:03:25.668Z,9.82
2022-10-31T05:05:55.658Z,9.45
2022-10-31T05:08:28.170Z,11.18
2022-10-31T05:11:03.238Z,10.85
2022-10-31T05:13:34.597Z,14.27
2022-10-31T05:19:23.282Z,7.53
2022-10-31T05:22:24.706Z,8.75
2022-10-31T05:24:57.228Z,6.22
2022-10-31T05:27:27.112Z,11.27
2022-10-31T05:29:56.989Z,9.80
2022-10-31T05:32:26.918Z,15.10
2022-10-31T05:35:18.473Z,7.10
2022-10-31T05:38:13.600Z,14.32
2022-10-31T05:40:46.322Z,13.88
2022-10-31T05:43:16.383Z,9.75
2022-10-31T05:45:46.280Z,14.35
2022-10-31T05:48:34.316Z,13.35
2022-10-31T05:51:30.313Z,10.10
2022-10-31T05:54:00.312Z,13.43
2022-10-31T05:56:33.477Z,10.65
2022-10-31T05:59:03.787Z,12.43
2022-10-31T06:01:33.779Z,8.15
2022-10-31T06:04:08.657Z,13.73
2022-10-31T06:06:40.061Z,10.75
2022-10-31T06:09:10.699Z,29.50
2022-10-31T06:11:43.630Z,12.38
2022-10-31T06:14:36.294Z,12.75
2022-10-31T06:17:07.017Z,14.30
2022-10-31T06:20:10.547Z,13.57
2022-10-31T06:22:52.152Z,12.60
2022-10-31T06:25:22.091Z,14.13
2022-10-31T06:27:55.718Z,14.40
2022-10-31T06:30:29.788Z,14.07
2022-10-31T06:33:05.753Z,20.17
2022-10-31T06:35:38.564Z,19.48
2022-10-31T06:38:08.500Z,14.93
2022-10-31T06:40:42.722Z,13.73
2022-10-31T06:43:27.352Z,14.35
2022-10-31T06:46:16.895Z,10.57
2022-10-31T06:48:57.447Z,11.60
2022-10-31T06:51:39.618Z,12.10
2022-10-31T06:54:09.625Z,20.35
2022-10-31T06:56:40.414Z,15.18
2022-10-31T06:59:12.999Z,14.57
2022-10-31T07:02:03.023Z,11.60
2022-10-31T07:04:33.028Z,14.93
2022-10-31T07:07:02.876Z,14.85
2022-10-31T07:09:36.289Z,15.13
2022-10-31T07:12:08.112Z,16.98
2022-10-31T07:14:44.256Z,17.27
2022-10-31T07:17:14.217Z,20.20
2022-10-31T07:19:47.052Z,15.02
2022-10-31T07:22:19.717Z,22.85
2022-10-31T07:24:49.644Z,19.40
2022-10-31T07:27:42.815Z,12.97
2022-10-31T07:30:19.385Z,14.60
2022-10-31T07:32:51.012Z,19.80
2022-10-31T07:35:23.978Z,14.55
2022-10-31T07:38:00.937Z,17.08
2022-10-31T07:40:31.019Z,14.55
2022-10-31T07:43:01.872Z,17.02
2022-10-31T07:46:03.903Z,19.83
2022-10-31T07:48:52.507Z,17.27
2022-10-31T07:51:46.358Z,15.02
2022-10-31T07:54:39.057Z,17.50
2022-10-31T07:57:12.273Z,15.15
2022-10-31T07:59:42.521Z,17.35
2022-10-31T08:02:17.464Z,16.83
2022-10-31T08:05:05.916Z,15.88
2022-10-31T08:07:56.267Z,16.80
2022-10-31T08:10:26.489Z,11.23
2022-10-31T08:13:02.057Z,15.88
2022-10-31T08:15:33.060Z,13.40
2022-10-31T08:18:05.802Z,13.70
2022-10-31T08:20:36.560Z,16.23
2022-10-31T08:23:07.733Z,14.40
2022-10-31T08:25:39.352Z,12.63
2022-10-31T08:28:10.699Z,13.35
2022-10-31T08:30:41.709Z,16.45
2022-10-31T08:33:32.672Z,15.25
2022-10-31T08:36:21.088Z,13.65
2022-10-31T08:39:01.576Z,11.07
2022-10-31T08:41:32.930Z,14.75
2022-10-31T08:44:04.031Z,11.55
2022-10-31T08:46:35.554Z,27.08
2022-10-31T08:49:08.413Z,22.75
2022-10-31T08:51:38.392Z,21.83
2022-10-31T08:54:08.519Z,24.45
2022-10-31T08:57:13.228Z,24.77
2022-10-31T08:59:46.897Z,66.15
2022-10-31T09:02:16.802Z,30.02
2022-10-31T09:04:49.411Z,20.75
2022-10-31T09:07:21.692Z,21.67
2022-10-31T09:09:52.127Z,19.90
2022-10-31T09:12:23.050Z,21.38
2022-10-31T09:15:22.425Z,23.13
2022-10-31T09:18:17.475Z,19.85
2022-10-31T09:20:56.048Z,24.13
2022-10-31T09:23:26.877Z,20.02
2022-10-31T09:25:57.607Z,15.07
2022-10-31T09:28:40.604Z,16.67
2022-10-31T09:31:14.094Z,21.60
2022-10-31T09:33:58.095Z,22.85
2022-10-31T09:36:50.763Z,16.67
2022-10-31T09:42:27.805Z,12.10
2022-10-31T09:45:05.192Z,11.95
2022-10-31T09:47:49.661Z,10.10
2022-10-31T09:50:40.831Z,9.57
2022-10-31T09:53:38.445Z,11.20
2022-10-31T09:56:10.932Z,11.93
2022-10-31T09:58:47.477Z,11.70
2022-10-31T10:01:34.176Z,9.05
2022-10-31T10:04:09.064Z,12.07
2022-10-31T10:07:02.773Z,10.00
2022-10-31T10:09:55.233Z,9.52
2022-10-31T10:12:54.726Z,13.00
2022-10-31T10:15:35.170Z,11.75
2022-10-31T10:18:12.396Z,20.65
2022-10-31T10:20:48.079Z,14.93
2022-10-31T10:23:39.319Z,19.40
2022-10-31T10:26:19.632Z,9.80
2022-10-31T10:28:52.228Z,11.77
2022-10-31T10:31:25.737Z,8.35
2022-10-31T10:34:05.620Z,11.90
2022-10-31T10:36:40.624Z,8.82
2022-10-31T10:39:18.371Z,8.73
2022-10-31T10:42:04.495Z,12.80
2022-10-31T10:44:46.749Z,15.85
2022-10-31T10:47:29.057Z,10.70
2022-10-31T10:49:58.925Z,9.88
2022-10-31T10:52:50.162Z,10.02
2022-10-31T10:55:27.172Z,7.53
2022-10-31T10:58:02.955Z,14.25
2022-10-31T11:00:35.618Z,10.23
2022-10-31T11:03:06.651Z,12.32
2022-10-31T11:05:40.277Z,10.48
2022-10-31T11:08:10.628Z,11.15
2022-10-31T11:10:40.686Z,267.23
2022-10-31T11:13:24.843Z,29.52
2022-10-31T11:15:59.734Z,11.20
2022-10-31T11:18:31.514Z,10.13
2022-10-31T11:21:03.835Z,28.10
2022-10-31T11:23:34.368Z,11.70
2022-10-31T11:26:06.022Z,12.73
2022-10-31T11:28:38.652Z,7.97
2022-10-31T11:31:11.253Z,17.85
2022-10-31T11:33:44.264Z,9.82
2022-10-31T11:36:21.045Z,13.45
2022-10-31T11:38:51.289Z,11.30
2022-10-31T11:41:22.925Z,12.23
2022-10-31T11:57:04.090Z,9.32
2022-10-31T11:59:35.488Z,7.43
2022-10-31T12:02:05.723Z,11.35
2022-10-31T12:04:41.496Z,10.05
2022-10-31T12:07:11.538Z,15.27
2022-10-31T12:09:42.115Z,12.45
2022-10-31T12:12:41.480Z,13.93
2022-10-31T12:15:24.940Z,7.97
2022-10-31T12:18:00.821Z,15.38
2022-10-31T12:20:39.264Z,20.27
2022-10-31T12:23:16.295Z,11.85
2022-10-31T12:25:52.274Z,12.40
2022-10-31T12:28:45.389Z,11.65
2022-10-31T12:31:27.729Z,18.75
2022-10-31T12:34:04.627Z,14.75
2022-10-31T12:36:43.061Z,10.65
2022-10-31T12:39:27.654Z,9.55
2022-10-31T12:42:04.158Z,10.63
2022-10-31T12:44:48.007Z,10.88
2022-10-31T12:47:51.473Z,13.93
2022-10-31T12:50:30.670Z,8.57
2022-10-31T12:53:09.255Z,7.07
2022-10-31T12:55:52.558Z,11.43
2022-10-31T12:58:26.504Z,13.15
2022-10-31T13:01:08.032Z,8.70
2022-10-31T13:03:43.085Z,10.10
2022-10-31T13:06:19.020Z,14.77
2022-10-31T13:08:51.765Z,7.63
2022-10-31T13:11:26.251Z,13.75
2022-10-31T13:14:03.010Z,11.10
2022-10-31T13:16:39.186Z,11.07
2022-10-31T13:19:14.706Z,9.95
2022-10-31T13:21:49.713Z,7.30
2022-10-31T13:24:24.087Z,10.25
2022-10-31T13:26:56.492Z,12.48
2022-10-31T13:29:31.814Z,8.35
2022-10-31T13:32:08.409Z,10.65
2022-10-31T13:34:41.823Z,10.82
2022-10-31T13:37:20.181Z,8.00
2022-10-31T13:40:02.512Z,10.52
2022-10-31T13:42:44.724Z,9.98
2022-10-31T13:45:20.720Z,8.77
2022-10-31T13:48:03.516Z,9.48
2022-10-31T13:50:35.250Z,10.18
2022-10-31T13:53:15.647Z,11.52
2022-10-31T13:55:46.867Z,10.05
2022-10-31T13:58:28.219Z,9.25
2022-10-31T14:01:16.075Z,11.73
2022-10-31T14:04:07.722Z,8.87
2022-10-31T14:06:42.802Z,6.95
2022-10-31T14:09:23.807Z,12.40
2022-10-31T14:11:54.568Z,8.60
2022-10-31T14:14:25.179Z,9.57
2022-10-31T14:16:59.179Z,8.52
2022-10-31T14:19:31.691Z,6.25
2022-10-31T14:22:01.728Z,6.03
2022-10-31T14:24:37.798Z,12.65
2022-10-31T14:27:38.950Z,7.95
2022-10-31T14:30:23.544Z,8.40
2022-10-31T14:32:55.848Z,9.55
2022-10-31T14:35:31.802Z,12.70
2022-10-31T14:38:27.895Z,13.30
2022-10-31T14:41:20.155Z,11.82
2022-10-31T14:44:21.238Z,11.35
2022-10-31T14:46:56.670Z,11.38
2022-10-31T14:49:39.148Z,11.57
2022-10-31T14:52:16.629Z,11.43
2022-10-31T14:54:49.902Z,11.10
2022-10-31T14:57:23.522Z,15.05
2022-10-31T14:59:57.937Z,16.67
2022-10-31T15:02:35.856Z,18.25
2022-10-31T15:05:07.936Z,16.15
2022-10-31T15:07:41.405Z,17.40
2022-10-31T15:10:26.936Z,28.35
2022-10-31T15:12:57.675Z,22.15
2022-10-31T15:15:29.265Z,30.58
2022-10-31T15:18:02.839Z,30.40
2022-10-31T15:20:34.675Z,29.02
2022-10-31T15:23:07.128Z,60.28
2022-10-31T15:25:38.758Z,50.08
2022-10-31T15:28:17.679Z,79.10
2022-10-31T15:30:54.633Z,131.07
2022-10-31T15:33:33.675Z,126.20
2022-10-31T15:36:08.247Z,142.43
2022-10-31T15:38:40.765Z,145.00
2022-10-31T15:41:25.894Z,152.57
2022-10-31T15:43:55.858Z,86.45
2022-10-31T15:46:28.315Z,80.75
2022-10-31T15:48:58.721Z,49.30
2022-10-31T15:51:36.323Z,63.72
2022-10-31T15:54:08.987Z,57.17
2022-10-31T15:56:39.200Z,72.15
2022-10-31T15:59:09.052Z,76.75
2022-10-31T16:01:39.014Z,86.30
2022-10-31T16:04:25.567Z,87.90
2022-10-31T16:07:04.435Z,78.47
2022-10-31T16:09:37.116Z,80.65
2022-10-31T16:12:07.443Z,91.88
2022-10-31T16:14:42.544Z,102.28
2022-10-31T16:17:15.789Z,104.07
2022-10-31T16:19:53.085Z,94.22
2022-10-31T16:22:29.308Z,88.85
2022-10-31T16:25:07.261Z,86.82
2022-10-31T16:27:38.939Z,73.25
2022-10-31T16:30:33.634Z,57.47
2022-10-31T16:33:04.988Z,55.03
2022-10-31T16:35:37.245Z,27.85
2022-10-31T16:38:07.663Z,30.55
2022-10-31T16:40:42.333Z,27.27
2022-10-31T16:43:15.214Z,38.10
2022-10-31T16:45:47.801Z,61.88
2022-10-31T16:48:20.496Z,107.07
2022-10-31T16:50:50.764Z,124.63
2022-10-31T16:53:20.987Z,62.97
2022-10-31T16:55:58.022Z,53.35
2022-10-31T16:58:33.108Z,49.10
2022-10-31T17:01:03.331Z,51.50
2022-10-31T17:03:33.291Z,50.05
2022-10-31T17:06:03.269Z,49.42
2022-10-31T17:08:34.196Z,94.03
2022-10-31T17:11:07.370Z,78.78
2022-10-31T17:13:37.794Z,69.28
2022-10-31T17:16:08.757Z,61.30
2022-10-31T17:18:38.610Z,81.88
2022-10-31T17:21:09.040Z,68.30
2022-10-31T17:23:38.913Z,63.88
2022-10-31T17:26:11.563Z,43.15
2022-10-31T17:28:41.418Z,55.42
2022-10-31T17:31:20.217Z,50.22
2022-10-31T17:33:50.138Z,46.83
2022-10-31T17:36:20.034Z,34.28
2022-10-31T17:38:49.893Z,41.78
2022-10-31T17:41:22.311Z,46.50
2022-10-31T17:43:52.179Z,52.20
2022-10-31T17:46:22.028Z,58.45
2022-10-31T17:48:51.911Z,59.10
2022-10-31T17:51:21.741Z,53.33
2022-10-31T17:53:51.609Z,50.80
2022-10-31T17:56:24.144Z,36.13
2022-10-31T17:58:54.049Z,32.45
2022-10-31T18:01:24.535Z,26.55
2022-10-31T18:03:54.540Z,20.85
2022-10-31T18:06:24.524Z,20.73
2022-10-31T18:08:56.232Z,24.80
2022-10-31T18:11:28.657Z,24.08
2022-10-31T18:14:00.977Z,21.17
2022-10-31T18:16:30.897Z,27.83
2022-10-31T18:19:01.961Z,25.30
2022-10-31T18:21:32.467Z,32.22
2022-10-31T18:24:03.343Z,22.70
2022-10-31T18:26:35.799Z,25.30
2022-10-31T18:29:06.090Z,17.42
2022-10-31T18:31:35.924Z,16.73
2022-10-31T18:34:05.768Z,20.33
2022-10-31T18:36:35.723Z,14.25
2022-10-31T18:39:06.704Z,17.90
2022-10-31T18:41:39.145Z,13.65
2022-10-31T18:44:10.024Z,11.63
2022-10-31T18:46:40.468Z,8.88
2022-10-31T18:49:10.291Z,13.48
2022-10-31T18:51:40.169Z,12.00
2022-10-31T18:54:10.984Z,9.60
2022-10-31T18:56:43.515Z,15.00
2022-10-31T18:59:14.664Z,20.02
2022-10-31T19:01:44.622Z,23.80
2022-10-31T19:04:14.674Z,23.63
2022-10-31T19:06:44.563Z,24.63
2022-10-31T19:09:14.455Z,23.17
2022-10-31T19:11:46.906Z,22.25
2022-10-31T19:14:16.910Z,29.42
2022-10-31T19:16:46.815Z,50.65
2022-10-31T19:19:16.646Z,44.10
2022-10-31T19:21:46.481Z,40.88
2022-10-31T19:24:16.529Z,21.75
2022-10-31T19:26:49.135Z,27.92
2022-10-31T19:29:19.327Z,20.50
2022-10-31T19:31:49.161Z,47.03
2022-10-31T19:34:19.040Z,44.70
2022-10-31T19:36:48.880Z,51.00
2022-10-31T19:39:18.721Z,31.40
2022-10-31T19:41:51.178Z,56.15
2022-10-31T19:44:21.031Z,34.35
2022-10-31T19:46:54.357Z,40.10
2022-10-31T19:49:24.329Z,33.20
2022-10-31T19:51:54.442Z,34.33
2022-10-31T19:54:24.350Z,25.92
2022-10-31T19:56:56.874Z,27.30
2022-10-31T19:59:26.766Z,24.08
2022-10-31T20:01:56.740Z,25.90
2022-10-31T20:04:26.805Z,30.77
2022-10-31T20:06:56.647Z,23.77
2022-10-31T20:09:26.503Z,28.10
2022-10-31T20:11:58.920Z,21.27
2022-10-31T20:14:28.793Z,22.65
2022-10-31T20:16:58.639Z,26.63
2022-10-31T20:19:28.481Z,32.20
2022-10-31T20:21:58.493Z,38.05
2022-10-31T20:24:28.384Z,52.38
2022-10-31T20:27:00.812Z,43.10
2022-10-31T20:29:30.674Z,39.92
2022-10-31T20:32:00.569Z,38.70
2022-10-31T20:34:30.485Z,41.17
2022-10-31T20:37:00.324Z,43.00
2022-10-31T20:39:30.158Z,40.30
2022-10-31T20:42:02.569Z,29.42
2022-10-31T20:44:32.424Z,23.27
2022-10-31T20:47:02.277Z,22.95
2022-10-31T20:49:33.204Z,30.05
2022-10-31T20:52:03.093Z,19.35
2022-10-31T20:54:32.956Z,25.65
2022-10-31T20:57:05.394Z,44.10
2022-10-31T20:59:35.325Z,40.35
2022-10-31T21:02:05.365Z,29.27
2022-10-31T21:04:35.300Z,24.90
2022-10-31T21:07:05.154Z,48.97
2022-10-31T21:09:34.997Z,70.10
2022-10-31T21:12:07.520Z,75.80
2022-10-31T21:14:37.936Z,59.50
2022-10-31T21:17:08.112Z,62.72
2022-10-31T21:19:37.976Z,48.53
2022-10-31T21:22:07.817Z,32.15
2022-10-31T21:24:37.741Z,24.52
2022-10-31T21:27:12.584Z,20.10
2022-10-31T21:29:42.565Z,19.25
2022-10-31T21:32:12.428Z,15.40
2022-10-31T21:34:42.256Z,18.90
2022-10-31T21:37:12.089Z,16.25
2022-10-31T21:39:45.618Z,14.90
2022-10-31T21:42:21.728Z,20.13
2022-10-31T21:44:51.816Z,16.00
2022-10-31T21:47:21.644Z,12.43
2022-10-31T21:49:51.537Z,22.05
2022-10-31T21:52:21.906Z,19.80
2022-10-31T21:54:49.166Z,14.93
2022-10-31T21:59:52.448Z,12.60
2022-10-31T22:02:22.331Z,13.43
2022-10-31T22:04:52.666Z,11.50
2022-10-31T22:07:22.517Z,13.52
2022-10-31T22:09:52.363Z,13.75
2022-10-31T22:12:24.873Z,11.70
2022-10-31T22:14:54.718Z,11.32
2022-10-31T22:17:24.552Z,11.13
2022-10-31T22:19:54.563Z,14.52
2022-10-31T22:22:24.412Z,15.15
2022-10-31T22:24:54.275Z,11.05
2022-10-31T22:27:26.716Z,11.10
2022-10-31T22:29:56.917Z,13.52
2022-10-31T22:32:27.371Z,9.57
2022-10-31T22:34:57.262Z,13.85
2022-10-31T22:37:27.149Z,10.65
2022-10-31T22:39:56.987Z,9.95
2022-10-31T22:42:29.469Z,35.00
2022-10-31T22:45:01.754Z,13.73
2022-10-31T22:47:31.713Z,17.15
2022-10-31T22:50:01.576Z,9.60
2022-10-31T22:52:31.459Z,14.38
2022-10-31T22:55:01.281Z,14.32
2022-10-31T22:57:33.730Z,14.00
2022-10-31T23:00:03.611Z,11.88
2022-10-31T23:02:33.483Z,11.18
2022-10-31T23:05:03.429Z,17.02
2022-10-31T23:07:33.323Z,18.25
2022-10-31T23:10:03.170Z,17.33
2022-10-31T23:12:48.053Z,12.07
2022-10-31T23:15:18.105Z,14.13
2022-10-31T23:17:47.975Z,14.50
2022-10-31T23:20:17.837Z,13.35
2022-10-31T23:22:47.696Z,14.55
2022-10-31T23:25:29.947Z,15.30
2022-10-31T23:28:02.364Z,16.02
2022-10-31T23:30:32.227Z,15.05
2022-10-31T23:33:02.375Z,162.93
2022-10-31T23:35:32.457Z,110.68
2022-10-31T23:38:02.446Z,121.28
2022-10-31T23:40:32.492Z,38.28
2022-10-31T23:43:04.940Z,33.22
2022-10-31T23:45:34.825Z,33.33
2022-10-31T23:48:04.758Z,23.08
2022-10-31T23:50:34.636Z,15.88
2022-10-31T23:53:04.472Z,15.38
2022-10-31T23:55:34.948Z,11.80
2022-10-31T23:58:07.383Z,17.05
